Ana Sayfa
METAR-TAF:

METAR-TAF

Havaalanları :

La Grande/Union County Airport

La Grande, Oregon, Amerika Birleşik Devletleri

Enlem: 45-17N, Boylam: 118-00W, yükseklik: 827 m

Güncel hava durumu gözlemi

Rapor saat 21:56 UTC de 17 dakika önce yapıldı.
Rüzgar güneydan 17 kt ve 21 kt'a kadar ani rüzgarlar
Sıcaklık 6°C
Nem 70%
Basınç 1021 hPa
Görüş mesafesi: 16.1 km
12000 ft yükseklikte çok bulutlu

METAR: KLGD 232156Z AUTO 17017G21KT 10SM OVC120 06/01 A3015 RMK AO2 SLP221 T00610011

Saat: 14:13 (22:13 UTC)


TAF: eksik

4.000'den fazla havaalanı için hava durumu gözlemleri ve tahminleri (METAR ve TAF raporları).

Kullanılabilir istasyonlar harita üzerinde sarı ve kırmızı noktalarla gösterilir.

İstasyonun adını görmek için fareyi noktanın üzerinde gezdirin.

Sonrasında hava gözlem ve tahminlerini görmek için tıklayın.

Haritayı değiştirmek için: yaklaştırmak için siyah artı işaretli yeşil düğmeye ve uzaklaştırmak için de eksi işaretli düğmeye hızla tıklayın; bitişik haritalar için yeşil okları kullanın.


METAR-TAF: